San Clemente, California
Current Conditions -  °F | °C
As of 7:54 AM on Thursday 23 Oct 2014 (Local Time) from KNFG Reporting Station
Few Clouds Few Clouds  
Wind Chill: 53°   Ceiling: Unl
Heat Index: 53°   Visibility: 7mi
Dew Point: 46°   Wind: 0mph
Humidity: 77%   Direction: NA
Pressure: 29.97"   Gusts: NA
Location:  33.43°N, 117.6°W
Report Text: KNFG 231454Z 00000KT 7SM FEW200 12/08 A2997 RMK AO2 SLP148 T01170078 53012 $
Loading
Personal Weather Stations






























Interactive Weather Map New forecast layout! Learn more

10-Day Weather Forecast

Advertisements
Track Severe Weather on mobile